sensor_id;sensor_type;location;lat;lon;timestamp;P1;durP1;ratioP1;P2;durP2;ratioP2
64075;SDS011;50327;51.328;12.324;2023-03-31T00:02:18;2.95;;;1.50;;
64075;SDS011;50327;51.328;12.324;2023-03-31T00:04:46;6.55;;;1.90;;
64075;SDS011;50327;51.328;12.324;2023-03-31T00:07:16;14.68;;;2.15;;
64075;SDS011;50327;51.328;12.324;2023-03-31T00:09:45;6.50;;;1.75;;
64075;SDS011;50327;51.328;12.324;2023-03-31T00:12:12;3.47;;;1.60;;
64075;SDS011;50327;51.328;12.324;2023-03-31T00:14:37;9.07;;;1.92;;
64075;SDS011;50327;51.328;12.324;2023-03-31T00:17:03;5.57;;;2.00;;
64075;SDS011;50327;51.328;12.324;2023-03-31T00:19:28;7.95;;;2.03;;
64075;SDS011;50327;51.328;12.324;2023-03-31T00:21:57;6.25;;;1.73;;
64075;SDS011;50327;51.328;12.324;2023-03-31T00:24:26;9.65;;;2.08;;
64075;SDS011;50327;51.328;12.324;2023-03-31T00:26:51;11.88;;;2.15;;
64075;SDS011;50327;51.328;12.324;2023-03-31T00:29:16;10.77;;;2.13;;
64075;SDS011;50327;51.328;12.324;2023-03-31T00:31:41;4.28;;;1.35;;
64075;SDS011;50327;51.328;12.324;2023-03-31T00:34:07;7.68;;;2.13;;
64075;SDS011;50327;51.328;12.324;2023-03-31T00:36:32;5.43;;;1.73;;
64075;SDS011;50327;51.328;12.324;2023-03-31T00:39:01;5.25;;;1.60;;
64075;SDS011;50327;51.328;12.324;2023-03-31T00:41:30;5.53;;;1.73;;
64075;SDS011;50327;51.328;12.324;2023-03-31T00:44:38;2.95;;;1.25;;
64075;SDS011;50327;51.328;12.324;2023-03-31T00:46:52;8.90;;;2.35;;
64075;SDS011;50327;51.328;12.324;2023-03-31T00:51:48;6.85;;;1.60;;
64075;SDS011;50327;51.328;12.324;2023-03-31T00:54:15;4.85;;;1.55;;
64075;SDS011;50327;51.328;12.324;2023-03-31T00:56:43;8.50;;;1.83;;
64075;SDS011;50327;51.328;12.324;2023-03-31T00:59:12;3.95;;;1.65;;
64075;SDS011;50327;51.328;12.324;2023-03-31T01:01:38;6.95;;;1.83;;
64075;SDS011;50327;51.328;12.324;2023-03-31T01:04:07;2.80;;;1.55;;
64075;SDS011;50327;51.328;12.324;2023-03-31T01:06:33;6.65;;;1.75;;
64075;SDS011;50327;51.328;12.324;2023-03-31T01:09:01;7.18;;;1.30;;
64075;SDS011;50327;51.328;12.324;2023-03-31T01:11:30;9.50;;;2.00;;
64075;SDS011;50327;51.328;12.324;2023-03-31T01:13:55;8.85;;;1.60;;
64075;SDS011;50327;51.328;12.324;2023-03-31T01:16:21;5.35;;;1.48;;
64075;SDS011;50327;51.328;12.324;2023-03-31T01:18:47;6.00;;;1.50;;
64075;SDS011;50327;51.328;12.324;2023-03-31T01:28:54;6.20;;;1.38;;
64075;SDS011;50327;51.328;12.324;2023-03-31T01:42:00;7.97;;;2.35;;
64075;SDS011;50327;51.328;12.324;2023-03-31T01:47:36;4.65;;;1.50;;
64075;SDS011;50327;51.328;12.324;2023-03-31T01:50:06;13.63;;;1.70;;
64075;SDS011;50327;51.328;12.324;2023-03-31T01:57:49;7.30;;;1.75;;
64075;SDS011;50327;51.328;12.324;2023-03-31T02:00:16;5.15;;;1.45;;
64075;SDS011;50327;51.328;12.324;2023-03-31T02:02:44;5.78;;;1.60;;
64075;SDS011;50327;51.328;12.324;2023-03-31T02:05:19;7.35;;;1.92;;
64075;SDS011;50327;51.328;12.324;2023-03-31T02:07:47;5.10;;;1.70;;
64075;SDS011;50327;51.328;12.324;2023-03-31T02:10:14;5.72;;;1.67;;
64075;SDS011;50327;51.328;12.324;2023-03-31T02:12:41;7.15;;;2.05;;
64075;SDS011;50327;51.328;12.324;2023-03-31T02:15:08;7.85;;;1.77;;
64075;SDS011;50327;51.328;12.324;2023-03-31T02:17:34;6.53;;;1.92;;
64075;SDS011;50327;51.328;12.324;2023-03-31T02:20:05;9.10;;;2.00;;
64075;SDS011;50327;51.328;12.324;2023-03-31T02:22:31;9.30;;;2.25;;
64075;SDS011;50327;51.328;12.324;2023-03-31T02:24:58;4.90;;;1.70;;
64075;SDS011;50327;51.328;12.324;2023-03-31T02:27:25;4.60;;;1.63;;
64075;SDS011;50327;51.328;12.324;2023-03-31T02:29:52;10.02;;;2.15;;
64075;SDS011;50327;51.328;12.324;2023-03-31T02:32:22;11.80;;;2.10;;
64075;SDS011;50327;51.328;12.324;2023-03-31T02:34:49;7.43;;;2.15;;
64075;SDS011;50327;51.328;12.324;2023-03-31T02:37:14;13.48;;;2.10;;
64075;SDS011;50327;51.328;12.324;2023-03-31T02:39:40;9.52;;;1.88;;
64075;SDS011;50327;51.328;12.324;2023-03-31T02:42:06;6.55;;;1.60;;
64075;SDS011;50327;51.328;12.324;2023-03-31T02:44:35;8.70;;;2.08;;
64075;SDS011;50327;51.328;12.324;2023-03-31T02:47:02;3.75;;;1.70;;
64075;SDS011;50327;51.328;12.324;2023-03-31T02:49:27;5.60;;;1.85;;
64075;SDS011;50327;51.328;12.324;2023-03-31T02:59:27;6.00;;;1.83;;
64075;SDS011;50327;51.328;12.324;2023-03-31T03:07:52;5.10;;;1.95;;
64075;SDS011;50327;51.328;12.324;2023-03-31T03:15:12;9.40;;;2.45;;
64075;SDS011;50327;51.328;12.324;2023-03-31T03:17:42;10.98;;;2.58;;
64075;SDS011;50327;51.328;12.324;2023-03-31T03:20:08;6.20;;;1.75;;
64075;SDS011;50327;51.328;12.324;2023-03-31T03:22:35;4.28;;;1.70;;
64075;SDS011;50327;51.328;12.324;2023-03-31T03:25:01;7.70;;;2.55;;
64075;SDS011;50327;51.328;12.324;2023-03-31T03:27:26;14.10;;;2.08;;
64075;SDS011;50327;51.328;12.324;2023-03-31T03:29:52;6.88;;;2.08;;
64075;SDS011;50327;51.328;12.324;2023-03-31T03:32:17;11.75;;;2.03;;
64075;SDS011;50327;51.328;12.324;2023-03-31T03:34:43;8.85;;;2.15;;
64075;SDS011;50327;51.328;12.324;2023-03-31T03:37:08;4.60;;;1.75;;
64075;SDS011;50327;51.328;12.324;2023-03-31T03:39:33;6.45;;;1.80;;
64075;SDS011;50327;51.328;12.324;2023-03-31T03:41:59;7.60;;;1.70;;
64075;SDS011;50327;51.328;12.324;2023-03-31T03:44:24;5.15;;;1.80;;
64075;SDS011;50327;51.328;12.324;2023-03-31T03:46:50;9.05;;;1.75;;
64075;SDS011;50327;51.328;12.324;2023-03-31T03:49:15;10.48;;;1.80;;
64075;SDS011;50327;51.328;12.324;2023-03-31T03:51:40;10.00;;;1.95;;
64075;SDS011;50327;51.328;12.324;2023-03-31T03:54:05;9.23;;;2.42;;
64075;SDS011;50327;51.328;12.324;2023-03-31T03:56:30;8.85;;;2.08;;
64075;SDS011;50327;51.328;12.324;2023-03-31T03:58:56;8.95;;;1.70;;
64075;SDS011;50327;51.328;12.324;2023-03-31T04:01:21;9.85;;;2.22;;
64075;SDS011;50327;51.328;12.324;2023-03-31T04:03:47;10.15;;;2.50;;
64075;SDS011;50327;51.328;12.324;2023-03-31T04:06:12;8.45;;;1.90;;
64075;SDS011;50327;51.328;12.324;2023-03-31T04:08:37;6.40;;;1.63;;
64075;SDS011;50327;51.328;12.324;2023-03-31T04:11:02;3.30;;;1.52;;
64075;SDS011;50327;51.328;12.324;2023-03-31T04:13:28;10.90;;;2.00;;
64075;SDS011;50327;51.328;12.324;2023-03-31T04:15:53;7.65;;;1.67;;
64075;SDS011;50327;51.328;12.324;2023-03-31T04:18:18;10.32;;;1.80;;
64075;SDS011;50327;51.328;12.324;2023-03-31T04:20:50;7.75;;;1.70;;
64075;SDS011;50327;51.328;12.324;2023-03-31T04:23:28;8.40;;;2.63;;
64075;SDS011;50327;51.328;12.324;2023-03-31T04:25:54;12.80;;;2.30;;
64075;SDS011;50327;51.328;12.324;2023-03-31T04:28:19;7.25;;;2.05;;
64075;SDS011;50327;51.328;12.324;2023-03-31T04:30:44;13.15;;;2.35;;
64075;SDS011;50327;51.328;12.324;2023-03-31T04:33:09;8.43;;;1.95;;
64075;SDS011;50327;51.328;12.324;2023-03-31T04:35:35;14.05;;;2.42;;
64075;SDS011;50327;51.328;12.324;2023-03-31T04:38:17;5.82;;;1.70;;
64075;SDS011;50327;51.328;12.324;2023-03-31T04:40:46;10.38;;;1.70;;
64075;SDS011;50327;51.328;12.324;2023-03-31T04:43:11;10.77;;;2.25;;
64075;SDS011;50327;51.328;12.324;2023-03-31T04:45:36;5.38;;;1.70;;
64075;SDS011;50327;51.328;12.324;2023-03-31T04:48:02;3.03;;;1.42;;
64075;SDS011;50327;51.328;12.324;2023-03-31T04:50:27;10.32;;;1.75;;
64075;SDS011;50327;51.328;12.324;2023-03-31T04:52:52;8.25;;;1.90;;
64075;SDS011;50327;51.328;12.324;2023-03-31T04:55:17;5.22;;;1.63;;
64075;SDS011;50327;51.328;12.324;2023-03-31T04:57:43;12.60;;;1.98;;
64075;SDS011;50327;51.328;12.324;2023-03-31T05:00:08;10.52;;;2.00;;
64075;SDS011;50327;51.328;12.324;2023-03-31T05:02:35;14.82;;;2.33;;
64075;SDS011;50327;51.328;12.324;2023-03-31T05:05:00;6.30;;;2.35;;
64075;SDS011;50327;51.328;12.324;2023-03-31T05:07:25;8.13;;;1.65;;
64075;SDS011;50327;51.328;12.324;2023-03-31T05:09:50;7.18;;;1.75;;
64075;SDS011;50327;51.328;12.324;2023-03-31T05:12:16;8.30;;;1.63;;
64075;SDS011;50327;51.328;12.324;2023-03-31T05:14:41;9.18;;;2.20;;
64075;SDS011;50327;51.328;12.324;2023-03-31T05:17:06;4.40;;;1.45;;
64075;SDS011;50327;51.328;12.324;2023-03-31T05:19:32;6.80;;;1.95;;
64075;SDS011;50327;51.328;12.324;2023-03-31T05:21:57;4.97;;;2.00;;
64075;SDS011;50327;51.328;12.324;2023-03-31T05:24:22;4.85;;;1.77;;
64075;SDS011;50327;51.328;12.324;2023-03-31T05:26:47;10.57;;;2.08;;
64075;SDS011;50327;51.328;12.324;2023-03-31T05:29:17;14.20;;;2.88;;
64075;SDS011;50327;51.328;12.324;2023-03-31T05:31:42;8.20;;;2.05;;
64075;SDS011;50327;51.328;12.324;2023-03-31T05:34:07;7.30;;;1.70;;
64075;SDS011;50327;51.328;12.324;2023-03-31T05:36:33;7.65;;;2.17;;
64075;SDS011;50327;51.328;12.324;2023-03-31T05:38:59;8.73;;;1.83;;
64075;SDS011;50327;51.328;12.324;2023-03-31T05:41:24;6.25;;;1.50;;
64075;SDS011;50327;51.328;12.324;2023-03-31T05:43:50;5.60;;;1.60;;
64075;SDS011;50327;51.328;12.324;2023-03-31T05:46:18;7.00;;;2.58;;
64075;SDS011;50327;51.328;12.324;2023-03-31T05:48:43;5.72;;;1.30;;
64075;SDS011;50327;51.328;12.324;2023-03-31T05:51:09;5.18;;;1.52;;
64075;SDS011;50327;51.328;12.324;2023-03-31T05:53:34;10.00;;;1.77;;
64075;SDS011;50327;51.328;12.324;2023-03-31T05:56:00;6.72;;;1.60;;
64075;SDS011;50327;51.328;12.324;2023-03-31T05:58:26;8.05;;;2.58;;
64075;SDS011;50327;51.328;12.324;2023-03-31T06:01:05;10.70;;;2.03;;
64075;SDS011;50327;51.328;12.324;2023-03-31T06:03:32;4.03;;;1.80;;
64075;SDS011;50327;51.328;12.324;2023-03-31T06:05:57;7.15;;;1.80;;
64075;SDS011;50327;51.328;12.324;2023-03-31T06:08:22;9.05;;;2.13;;
64075;SDS011;50327;51.328;12.324;2023-03-31T06:10:48;6.90;;;1.58;;
64075;SDS011;50327;51.328;12.324;2023-03-31T06:13:13;9.45;;;2.45;;
64075;SDS011;50327;51.328;12.324;2023-03-31T06:15:38;7.43;;;1.88;;
64075;SDS011;50327;51.328;12.324;2023-03-31T06:18:03;5.32;;;1.52;;
64075;SDS011;50327;51.328;12.324;2023-03-31T06:20:31;7.70;;;1.77;;
64075;SDS011;50327;51.328;12.324;2023-03-31T06:22:56;7.45;;;1.52;;
64075;SDS011;50327;51.328;12.324;2023-03-31T06:25:22;7.63;;;1.92;;
64075;SDS011;50327;51.328;12.324;2023-03-31T06:27:47;4.05;;;1.75;;
64075;SDS011;50327;51.328;12.324;2023-03-31T06:30:12;9.35;;;2.05;;
64075;SDS011;50327;51.328;12.324;2023-03-31T06:32:37;8.35;;;1.77;;
64075;SDS011;50327;51.328;12.324;2023-03-31T06:35:02;10.98;;;1.95;;
64075;SDS011;50327;51.328;12.324;2023-03-31T06:37:28;11.25;;;2.10;;
64075;SDS011;50327;51.328;12.324;2023-03-31T06:39:53;10.60;;;2.70;;
64075;SDS011;50327;51.328;12.324;2023-03-31T06:42:18;15.25;;;2.50;;
64075;SDS011;50327;51.328;12.324;2023-03-31T06:44:43;7.65;;;2.28;;
64075;SDS011;50327;51.328;12.324;2023-03-31T06:47:09;7.97;;;1.92;;
64075;SDS011;50327;51.328;12.324;2023-03-31T06:49:34;6.43;;;1.90;;
64075;SDS011;50327;51.328;12.324;2023-03-31T06:51:59;5.60;;;1.70;;
64075;SDS011;50327;51.328;12.324;2023-03-31T06:54:25;6.20;;;1.77;;
64075;SDS011;50327;51.328;12.324;2023-03-31T06:56:50;4.00;;;1.70;;
64075;SDS011;50327;51.328;12.324;2023-03-31T06:59:15;11.45;;;2.42;;
64075;SDS011;50327;51.328;12.324;2023-03-31T07:01:40;10.13;;;2.33;;
64075;SDS011;50327;51.328;12.324;2023-03-31T07:04:06;7.50;;;2.20;;
64075;SDS011;50327;51.328;12.324;2023-03-31T07:06:31;9.70;;;3.00;;
64075;SDS011;50327;51.328;12.324;2023-03-31T07:08:57;7.05;;;2.35;;
64075;SDS011;50327;51.328;12.324;2023-03-31T07:11:22;6.40;;;2.00;;
64075;SDS011;50327;51.328;12.324;2023-03-31T07:13:47;7.85;;;1.90;;
64075;SDS011;50327;51.328;12.324;2023-03-31T07:16:12;8.07;;;1.73;;
64075;SDS011;50327;51.328;12.324;2023-03-31T07:18:38;6.85;;;2.05;;
64075;SDS011;50327;51.328;12.324;2023-03-31T07:21:06;9.50;;;2.20;;
64075;SDS011;50327;51.328;12.324;2023-03-31T07:23:32;6.47;;;1.77;;
64075;SDS011;50327;51.328;12.324;2023-03-31T07:25:57;7.15;;;1.48;;
64075;SDS011;50327;51.328;12.324;2023-03-31T07:28:26;6.03;;;1.83;;
64075;SDS011;50327;51.328;12.324;2023-03-31T07:30:51;5.18;;;1.52;;
64075;SDS011;50327;51.328;12.324;2023-03-31T07:33:17;8.25;;;2.03;;
64075;SDS011;50327;51.328;12.324;2023-03-31T07:35:42;6.80;;;2.00;;
64075;SDS011;50327;51.328;12.324;2023-03-31T07:38:08;7.53;;;2.17;;
64075;SDS011;50327;51.328;12.324;2023-03-31T07:40:33;8.75;;;2.80;;
64075;SDS011;50327;51.328;12.324;2023-03-31T07:42:58;7.60;;;2.13;;
64075;SDS011;50327;51.328;12.324;2023-03-31T07:45:24;3.63;;;1.73;;
64075;SDS011;50327;51.328;12.324;2023-03-31T07:47:50;8.13;;;2.10;;
64075;SDS011;50327;51.328;12.324;2023-03-31T07:50:16;5.88;;;1.95;;
64075;SDS011;50327;51.328;12.324;2023-03-31T07:52:41;10.57;;;1.95;;
64075;SDS011;50327;51.328;12.324;2023-03-31T07:55:07;13.75;;;2.22;;
64075;SDS011;50327;51.328;12.324;2023-03-31T07:57:33;7.10;;;1.77;;
64075;SDS011;50327;51.328;12.324;2023-03-31T07:59:58;10.88;;;1.73;;
64075;SDS011;50327;51.328;12.324;2023-03-31T08:02:23;8.50;;;1.92;;
64075;SDS011;50327;51.328;12.324;2023-03-31T08:04:48;8.07;;;2.13;;
64075;SDS011;50327;51.328;12.324;2023-03-31T08:07:14;8.38;;;2.05;;
64075;SDS011;50327;51.328;12.324;2023-03-31T08:09:41;4.35;;;1.60;;
64075;SDS011;50327;51.328;12.324;2023-03-31T08:12:07;12.23;;;2.35;;
64075;SDS011;50327;51.328;12.324;2023-03-31T08:14:32;12.13;;;2.05;;
64075;SDS011;50327;51.328;12.324;2023-03-31T08:16:58;7.78;;;1.60;;
64075;SDS011;50327;51.328;12.324;2023-03-31T08:19:24;12.75;;;2.40;;
64075;SDS011;50327;51.328;12.324;2023-03-31T08:21:49;16.75;;;3.08;;
64075;SDS011;50327;51.328;12.324;2023-03-31T08:24:16;11.27;;;2.83;;
64075;SDS011;50327;51.328;12.324;2023-03-31T08:26:41;8.05;;;2.35;;
64075;SDS011;50327;51.328;12.324;2023-03-31T08:29:06;15.52;;;2.65;;
64075;SDS011;50327;51.328;12.324;2023-03-31T08:31:32;9.60;;;2.00;;
64075;SDS011;50327;51.328;12.324;2023-03-31T08:33:57;10.88;;;2.15;;
64075;SDS011;50327;51.328;12.324;2023-03-31T08:36:22;11.73;;;2.38;;
64075;SDS011;50327;51.328;12.324;2023-03-31T08:38:47;7.65;;;2.35;;
64075;SDS011;50327;51.328;12.324;2023-03-31T08:43:45;11.15;;;2.03;;
64075;SDS011;50327;51.328;12.324;2023-03-31T08:46:11;8.25;;;1.77;;
64075;SDS011;50327;51.328;12.324;2023-03-31T08:48:41;6.40;;;1.98;;
64075;SDS011;50327;51.328;12.324;2023-03-31T08:53:44;9.60;;;2.10;;
64075;SDS011;50327;51.328;12.324;2023-03-31T08:56:15;9.88;;;1.60;;
64075;SDS011;50327;51.328;12.324;2023-03-31T08:58:43;6.07;;;1.70;;
64075;SDS011;50327;51.328;12.324;2023-03-31T09:04:13;8.57;;;2.03;;
64075;SDS011;50327;51.328;12.324;2023-03-31T09:09:09;5.30;;;2.08;;
64075;SDS011;50327;51.328;12.324;2023-03-31T09:11:35;7.80;;;2.13;;
64075;SDS011;50327;51.328;12.324;2023-03-31T09:19:31;4.93;;;1.58;;
64075;SDS011;50327;51.328;12.324;2023-03-31T09:21:57;5.68;;;1.85;;
64075;SDS011;50327;51.328;12.324;2023-03-31T09:24:32;11.52;;;2.05;;
64075;SDS011;50327;51.328;12.324;2023-03-31T09:27:00;7.15;;;1.88;;
64075;SDS011;50327;51.328;12.324;2023-03-31T09:32:01;14.20;;;1.65;;
64075;SDS011;50327;51.328;12.324;2023-03-31T09:34:28;5.70;;;1.67;;
64075;SDS011;50327;51.328;12.324;2023-03-31T09:36:53;5.97;;;1.83;;
64075;SDS011;50327;51.328;12.324;2023-03-31T09:39:19;8.20;;;2.10;;
64075;SDS011;50327;51.328;12.324;2023-03-31T09:41:45;5.45;;;1.67;;
64075;SDS011;50327;51.328;12.324;2023-03-31T09:44:20;7.78;;;1.60;;
64075;SDS011;50327;51.328;12.324;2023-03-31T09:46:47;8.18;;;1.80;;
64075;SDS011;50327;51.328;12.324;2023-03-31T09:49:13;9.60;;;2.47;;
64075;SDS011;50327;51.328;12.324;2023-03-31T09:51:40;5.53;;;1.80;;
64075;SDS011;50327;51.328;12.324;2023-03-31T09:54:22;8.27;;;2.00;;
64075;SDS011;50327;51.328;12.324;2023-03-31T09:56:48;5.90;;;2.30;;
64075;SDS011;50327;51.328;12.324;2023-03-31T09:59:18;6.22;;;1.70;;
64075;SDS011;50327;51.328;12.324;2023-03-31T10:01:44;7.88;;;2.00;;
64075;SDS011;50327;51.328;12.324;2023-03-31T10:04:11;6.65;;;1.80;;
64075;SDS011;50327;51.328;12.324;2023-03-31T10:06:41;6.72;;;1.98;;
64075;SDS011;50327;51.328;12.324;2023-03-31T10:09:06;8.52;;;2.00;;
64075;SDS011;50327;51.328;12.324;2023-03-31T10:11:36;7.65;;;2.13;;
64075;SDS011;50327;51.328;12.324;2023-03-31T10:14:14;7.60;;;1.92;;
64075;SDS011;50327;51.328;12.324;2023-03-31T10:16:44;4.35;;;1.63;;
64075;SDS011;50327;51.328;12.324;2023-03-31T10:19:12;9.50;;;2.90;;
64075;SDS011;50327;51.328;12.324;2023-03-31T10:21:41;12.73;;;3.00;;
64075;SDS011;50327;51.328;12.324;2023-03-31T10:24:09;11.77;;;2.10;;
64075;SDS011;50327;51.328;12.324;2023-03-31T10:26:34;10.77;;;2.20;;
64075;SDS011;50327;51.328;12.324;2023-03-31T10:29:00;9.40;;;3.25;;
64075;SDS011;50327;51.328;12.324;2023-03-31T10:31:26;11.10;;;2.05;;
64075;SDS011;50327;51.328;12.324;2023-03-31T10:33:57;6.45;;;1.80;;
64075;SDS011;50327;51.328;12.324;2023-03-31T10:36:27;15.23;;;3.25;;
64075;SDS011;50327;51.328;12.324;2023-03-31T10:38:53;5.97;;;2.40;;
64075;SDS011;50327;51.328;12.324;2023-03-31T10:41:20;11.07;;;2.03;;
64075;SDS011;50327;51.328;12.324;2023-03-31T10:43:56;8.10;;;2.00;;
64075;SDS011;50327;51.328;12.324;2023-03-31T10:47:14;8.48;;;1.55;;
64075;SDS011;50327;51.328;12.324;2023-03-31T10:51:50;10.52;;;2.90;;
64075;SDS011;50327;51.328;12.324;2023-03-31T10:54:16;5.20;;;2.03;;
64075;SDS011;50327;51.328;12.324;2023-03-31T10:56:43;8.65;;;2.20;;
64075;SDS011;50327;51.328;12.324;2023-03-31T10:59:13;7.60;;;2.38;;
64075;SDS011;50327;51.328;12.324;2023-03-31T11:01:42;9.23;;;2.70;;
64075;SDS011;50327;51.328;12.324;2023-03-31T11:11:59;7.63;;;2.40;;
64075;SDS011;50327;51.328;12.324;2023-03-31T11:17:04;13.38;;;2.20;;
64075;SDS011;50327;51.328;12.324;2023-03-31T11:19:42;7.47;;;2.10;;
64075;SDS011;50327;51.328;12.324;2023-03-31T11:24:47;6.95;;;2.42;;
64075;SDS011;50327;51.328;12.324;2023-03-31T11:27:24;9.55;;;2.50;;
64075;SDS011;50327;51.328;12.324;2023-03-31T11:35:06;7.88;;;2.25;;
64075;SDS011;50327;51.328;12.324;2023-03-31T11:37:59;7.57;;;2.40;;
64075;SDS011;50327;51.328;12.324;2023-03-31T11:45:36;8.75;;;2.00;;
64075;SDS011;50327;51.328;12.324;2023-03-31T11:48:05;6.50;;;1.80;;
64075;SDS011;50327;51.328;12.324;2023-03-31T11:50:35;9.43;;;2.20;;
64075;SDS011;50327;51.328;12.324;2023-03-31T11:53:05;3.50;;;1.80;;
64075;SDS011;50327;51.328;12.324;2023-03-31T12:00:45;4.97;;;1.85;;
64075;SDS011;50327;51.328;12.324;2023-03-31T12:05:44;6.72;;;2.33;;
64075;SDS011;50327;51.328;12.324;2023-03-31T12:08:15;6.22;;;1.98;;
64075;SDS011;50327;51.328;12.324;2023-03-31T12:10:42;12.25;;;4.07;;
64075;SDS011;50327;51.328;12.324;2023-03-31T12:15:40;7.60;;;2.40;;
64075;SDS011;50327;51.328;12.324;2023-03-31T12:18:14;15.38;;;3.40;;
64075;SDS011;50327;51.328;12.324;2023-03-31T12:20:44;6.35;;;3.22;;
64075;SDS011;50327;51.328;12.324;2023-03-31T12:23:12;5.97;;;2.10;;
64075;SDS011;50327;51.328;12.324;2023-03-31T12:25:41;10.63;;;2.83;;
64075;SDS011;50327;51.328;12.324;2023-03-31T12:28:10;8.95;;;3.92;;
64075;SDS011;50327;51.328;12.324;2023-03-31T12:30:36;6.25;;;2.58;;
64075;SDS011;50327;51.328;12.324;2023-03-31T12:33:09;6.13;;;2.53;;
64075;SDS011;50327;51.328;12.324;2023-03-31T12:41:16;9.50;;;3.53;;
64075;SDS011;50327;51.328;12.324;2023-03-31T12:46:47;8.43;;;2.15;;
64075;SDS011;50327;51.328;12.324;2023-03-31T12:49:04;6.30;;;1.60;;
64075;SDS011;50327;51.328;12.324;2023-03-31T12:54:14;6.47;;;2.55;;
64075;SDS011;50327;51.328;12.324;2023-03-31T12:59:40;3.42;;;1.42;;
64075;SDS011;50327;51.328;12.324;2023-03-31T13:04:33;6.15;;;2.17;;
64075;SDS011;50327;51.328;12.324;2023-03-31T13:07:00;1.73;;;0.93;;
64075;SDS011;50327;51.328;12.324;2023-03-31T13:11:57;2.40;;;1.17;;
64075;SDS011;50327;51.328;12.324;2023-03-31T13:14:23;3.72;;;1.10;;
64075;SDS011;50327;51.328;12.324;2023-03-31T13:16:52;6.60;;;1.50;;
64075;SDS011;50327;51.328;12.324;2023-03-31T13:21:54;4.72;;;1.10;;
64075;SDS011;50327;51.328;12.324;2023-03-31T13:24:26;3.55;;;1.08;;
64075;SDS011;50327;51.328;12.324;2023-03-31T13:26:52;2.25;;;1.00;;
64075;SDS011;50327;51.328;12.324;2023-03-31T13:34:30;5.22;;;0.85;;
64075;SDS011;50327;51.328;12.324;2023-03-31T13:50:45;1.48;;;0.80;;
64075;SDS011;50327;51.328;12.324;2023-03-31T13:58:43;1.38;;;0.65;;
64075;SDS011;50327;51.328;12.324;2023-03-31T14:06:58;1.27;;;0.80;;
64075;SDS011;50327;51.328;12.324;2023-03-31T14:09:31;1.80;;;0.82;;
64075;SDS011;50327;51.328;12.324;2023-03-31T14:11:58;4.60;;;1.00;;
64075;SDS011;50327;51.328;12.324;2023-03-31T14:14:24;3.67;;;0.80;;
64075;SDS011;50327;51.328;12.324;2023-03-31T14:16:54;2.00;;;0.90;;
64075;SDS011;50327;51.328;12.324;2023-03-31T14:19:30;2.53;;;1.08;;
64075;SDS011;50327;51.328;12.324;2023-03-31T14:24:29;4.50;;;1.30;;
64075;SDS011;50327;51.328;12.324;2023-03-31T14:27:11;4.03;;;1.10;;
64075;SDS011;50327;51.328;12.324;2023-03-31T14:32:22;3.47;;;1.00;;
64075;SDS011;50327;51.328;12.324;2023-03-31T14:35:32;4.15;;;1.10;;
64075;SDS011;50327;51.328;12.324;2023-03-31T14:37:39;11.07;;;1.55;;
64075;SDS011;50327;51.328;12.324;2023-03-31T14:40:04;2.17;;;0.80;;
64075;SDS011;50327;51.328;12.324;2023-03-31T14:42:37;5.50;;;1.17;;
64075;SDS011;50327;51.328;12.324;2023-03-31T14:45:03;2.88;;;1.00;;
64075;SDS011;50327;51.328;12.324;2023-03-31T14:47:30;4.63;;;0.82;;
64075;SDS011;50327;51.328;12.324;2023-03-31T14:50:04;4.25;;;1.10;;
64075;SDS011;50327;51.328;12.324;2023-03-31T14:52:31;2.70;;;0.70;;
64075;SDS011;50327;51.328;12.324;2023-03-31T14:54:57;4.65;;;0.95;;
64075;SDS011;50327;51.328;12.324;2023-03-31T14:57:25;4.60;;;1.73;;
64075;SDS011;50327;51.328;12.324;2023-03-31T14:59:51;2.80;;;1.00;;
64075;SDS011;50327;51.328;12.324;2023-03-31T15:02:25;2.75;;;1.00;;
64075;SDS011;50327;51.328;12.324;2023-03-31T15:04:53;2.45;;;1.05;;
64075;SDS011;50327;51.328;12.324;2023-03-31T15:07:20;4.43;;;1.00;;
64075;SDS011;50327;51.328;12.324;2023-03-31T15:09:48;2.90;;;1.17;;
64075;SDS011;50327;51.328;12.324;2023-03-31T15:12:14;1.70;;;0.90;;
64075;SDS011;50327;51.328;12.324;2023-03-31T15:14:47;1.92;;;0.82;;
64075;SDS011;50327;51.328;12.324;2023-03-31T15:17:20;4.18;;;1.08;;
64075;SDS011;50327;51.328;12.324;2023-03-31T15:19:51;12.75;;;1.20;;
64075;SDS011;50327;51.328;12.324;2023-03-31T15:22:17;2.88;;;1.00;;
64075;SDS011;50327;51.328;12.324;2023-03-31T15:24:43;2.15;;;0.90;;
64075;SDS011;50327;51.328;12.324;2023-03-31T15:27:16;3.15;;;1.17;;
64075;SDS011;50327;51.328;12.324;2023-03-31T15:29:43;3.47;;;1.05;;
64075;SDS011;50327;51.328;12.324;2023-03-31T15:32:15;3.80;;;1.20;;
64075;SDS011;50327;51.328;12.324;2023-03-31T15:34:42;2.63;;;0.90;;
64075;SDS011;50327;51.328;12.324;2023-03-31T15:37:08;4.32;;;1.08;;
64075;SDS011;50327;51.328;12.324;2023-03-31T15:39:34;5.90;;;1.20;;
64075;SDS011;50327;51.328;12.324;2023-03-31T15:42:01;1.85;;;0.90;;
64075;SDS011;50327;51.328;12.324;2023-03-31T15:49:30;3.28;;;0.90;;
64075;SDS011;50327;51.328;12.324;2023-03-31T15:51:55;2.17;;;0.93;;
64075;SDS011;50327;51.328;12.324;2023-03-31T15:54:29;2.33;;;0.88;;
64075;SDS011;50327;51.328;12.324;2023-03-31T15:57:01;3.35;;;1.10;;
64075;SDS011;50327;51.328;12.324;2023-03-31T15:59:28;3.40;;;1.33;;
64075;SDS011;50327;51.328;12.324;2023-03-31T16:01:54;5.38;;;1.60;;
64075;SDS011;50327;51.328;12.324;2023-03-31T16:04:20;4.25;;;1.10;;
64075;SDS011;50327;51.328;12.324;2023-03-31T16:06:47;2.13;;;0.93;;
64075;SDS011;50327;51.328;12.324;2023-03-31T16:09:16;2.55;;;0.90;;
64075;SDS011;50327;51.328;12.324;2023-03-31T16:11:49;1.42;;;0.88;;
64075;SDS011;50327;51.328;12.324;2023-03-31T16:14:23;2.28;;;1.10;;
64075;SDS011;50327;51.328;12.324;2023-03-31T16:16:57;1.88;;;0.85;;
64075;SDS011;50327;51.328;12.324;2023-03-31T16:19:24;0.88;;;0.73;;
64075;SDS011;50327;51.328;12.324;2023-03-31T16:21:52;1.77;;;0.90;;
64075;SDS011;50327;51.328;12.324;2023-03-31T16:24:19;3.67;;;1.10;;
64075;SDS011;50327;51.328;12.324;2023-03-31T16:26:45;3.20;;;1.25;;
64075;SDS011;50327;51.328;12.324;2023-03-31T16:29:20;2.50;;;1.10;;
64075;SDS011;50327;51.328;12.324;2023-03-31T16:31:46;5.68;;;1.30;;
64075;SDS011;50327;51.328;12.324;2023-03-31T16:34:11;3.47;;;1.10;;
64075;SDS011;50327;51.328;12.324;2023-03-31T16:36:37;3.25;;;0.70;;
64075;SDS011;50327;51.328;12.324;2023-03-31T16:39:02;4.85;;;1.05;;
64075;SDS011;50327;51.328;12.324;2023-03-31T16:41:29;4.90;;;1.50;;
64075;SDS011;50327;51.328;12.324;2023-03-31T16:43:55;3.35;;;1.13;;
64075;SDS011;50327;51.328;12.324;2023-03-31T16:46:21;6.45;;;2.10;;
64075;SDS011;50327;51.328;12.324;2023-03-31T16:48:46;2.75;;;1.10;;
64075;SDS011;50327;51.328;12.324;2023-03-31T16:51:11;4.60;;;1.52;;
64075;SDS011;50327;51.328;12.324;2023-03-31T16:53:37;4.28;;;1.20;;
64075;SDS011;50327;51.328;12.324;2023-03-31T16:56:03;4.28;;;0.98;;
64075;SDS011;50327;51.328;12.324;2023-03-31T16:58:29;5.15;;;1.15;;
64075;SDS011;50327;51.328;12.324;2023-03-31T17:00:55;4.18;;;1.30;;
64075;SDS011;50327;51.328;12.324;2023-03-31T17:03:21;6.47;;;1.00;;
64075;SDS011;50327;51.328;12.324;2023-03-31T17:05:47;3.95;;;1.02;;
64075;SDS011;50327;51.328;12.324;2023-03-31T17:08:14;2.28;;;0.88;;
64075;SDS011;50327;51.328;12.324;2023-03-31T17:10:39;2.80;;;1.00;;
64075;SDS011;50327;51.328;12.324;2023-03-31T17:13:06;2.17;;;1.00;;
64075;SDS011;50327;51.328;12.324;2023-03-31T17:15:31;4.82;;;1.30;;
64075;SDS011;50327;51.328;12.324;2023-03-31T17:18:03;2.38;;;0.85;;
64075;SDS011;50327;51.328;12.324;2023-03-31T17:20:29;4.32;;;1.25;;